Charlotte Roush — WDE5112 — position and weather

sailwx.info

Track history (hours):
 
Tides and Currents Weather Stations Pressure Air Temp Water Temp Dewpoint Dewpoint Depression Visibility Wind Speed Wind Dir Waves Ship Positions

Charlotte Roush

Owner: AEP River Operations LLC, Chesterfield, MO. More information available from US FCC via Universal Licensing System and Coast Guard Vessel Documentation Center.

Last reported at 2016-Aug-04 04:33 UTC. Time now 2016-Sep-28 18:46 UTC.
Position N 29°56' W 090°11'.
Warning: this ship's position is 55 days out of date.

Length 35 m; draft 3 m.

Type: Towing. MMSI: 367362230.

Date/timePositionNaut miles runAvg speedWind from/ knotsBaromVisibWave heightAir tempDewpointWater temp
2016-Aug-04 04:33N 29°56' W 090°11'2 2.1
2016-Aug-04 03:33N 29°57' W 090°09'3 3.3
2016-Aug-04 02:33N 29°55' W 090°07'3 3.5
2016-Aug-04 01:33N 29°57' W 090°04'2 2.3
2016-Aug-04 00:33N 29°57' W 090°01'0 0.1
2016-Aug-03 23:33N 29°57' W 090°01'1 0.6
2016-Aug-03 22:33N 29°56' W 090°00'5 4.8
2016-Aug-03 21:33N 29°55' W 089°55'3 2.8
2016-Aug-03 20:33N 29°52' W 089°57'4 3.9
2016-Aug-03 19:31N 29°49' W 089°60'6 0.6
2016-Aug-03 10:33N 29°44' W 089°60'6 4.9
2016-Aug-03 09:17N 29°50' W 089°60'4 5.0
2016-Aug-03 08:33N 29°53' W 089°58'3 3.0
2016-Aug-03 07:33N 29°54' W 089°55'5 5.0
2016-Aug-03 06:33N 29°56' W 089°60'7 3.7
2016-Aug-03 04:33N 29°56' W 090°08'3 2.8
2016-Aug-03 03:32N 29°56' W 090°12'3 2.4
2016-Aug-03 02:11N 29°58' W 090°14'  
2016-Jul-30 14:09N 29°56' W 090°13'3 4.4
2016-Jul-30 13:33N 29°57' W 090°10'3 3.1
2016-Jul-30 12:32N 29°55' W 090°07'4 3.8
2016-Jul-30 11:33N 29°56' W 090°03'3 2.8
2016-Jul-30 10:33N 29°56' W 090°00'4 4.0
2016-Jul-30 09:33N 29°55' W 089°56'3 3.2
2016-Jul-30 08:31N 29°52' W 089°55'3 3.0
2016-Jul-30 07:33N 29°52' W 089°59'4 2.8
2016-Jul-30 06:12N 29°48' W 090°01'0 0.0
2016-Jul-30 04:10N 29°48' W 090°01'0 0.0
2016-Jul-30 02:08N 29°48' W 090°01'1 0.4
2016-Jul-29 23:31N 29°47' W 090°01'0 0.0
2016-Jul-29 21:15N 29°47' W 090°01'0 0.0
2016-Jul-29 20:32N 29°47' W 090°01'0 0.0
2016-Jul-29 19:05N 29°47' W 090°01'3 0.7
2016-Jul-29 14:16N 29°44' W 089°60'6 6.7
2016-Jul-29 13:25N 29°50' W 089°60'4 5.2
2016-Jul-29 12:33N 29°52' W 089°55'5 5.0
2016-Jul-29 11:33N 29°56' W 089°59'1 1.3
2016-Jul-29 10:33N 29°56' W 090°00'3 3.3
2016-Jul-29 09:34N 29°56' W 090°04'4 4.0
2016-Jul-29 08:33N 29°56' W 090°08'  
Track history (hours):
 
Tides and Currents Weather Stations Pressure Air Temp Water Temp Dewpoint Dewpoint Depression Visibility Wind Speed Wind Dir Waves Ship Positions

Charlotte Roush

Owner: AEP River Operations LLC, Chesterfield, MO. More information available from US FCC via Universal Licensing System and Coast Guard Vessel Documentation Center.

Last reported at 2016-Aug-04 04:33 UTC. Time now 2016-Sep-28 18:46 UTC.
Position N 29°56' W 090°11'.
Warning: this ship's position is 55 days out of date.

Length 35 m; draft 3 m.

Type: Towing. MMSI: 367362230.

Date/timePositionNaut miles runAvg speedWind from/ knotsBaromVisibWave heightAir tempDewpointWater temp
2016-Aug-04 04:33N 29°56' W 090°11'2 2.1
2016-Aug-04 03:33N 29°57' W 090°09'3 3.3
2016-Aug-04 02:33N 29°55' W 090°07'3 3.5
2016-Aug-04 01:33N 29°57' W 090°04'2 2.3
2016-Aug-04 00:33N 29°57' W 090°01'0 0.1
2016-Aug-03 23:33N 29°57' W 090°01'1 0.6
2016-Aug-03 22:33N 29°56' W 090°00'5 4.8
2016-Aug-03 21:33N 29°55' W 089°55'3 2.8
2016-Aug-03 20:33N 29°52' W 089°57'4 3.9
2016-Aug-03 19:31N 29°49' W 089°60'6 0.6
2016-Aug-03 10:33N 29°44' W 089°60'6 4.9
2016-Aug-03 09:17N 29°50' W 089°60'4 5.0
2016-Aug-03 08:33N 29°53' W 089°58'3 3.0
2016-Aug-03 07:33N 29°54' W 089°55'5 5.0
2016-Aug-03 06:33N 29°56' W 089°60'7 3.7
2016-Aug-03 04:33N 29°56' W 090°08'3 2.8
2016-Aug-03 03:32N 29°56' W 090°12'3 2.4
2016-Aug-03 02:11N 29°58' W 090°14'  
2016-Jul-30 14:09N 29°56' W 090°13'3 4.4
2016-Jul-30 13:33N 29°57' W 090°10'3 3.1
2016-Jul-30 12:32N 29°55' W 090°07'4 3.8
2016-Jul-30 11:33N 29°56' W 090°03'3 2.8
2016-Jul-30 10:33N 29°56' W 090°00'4 4.0
2016-Jul-30 09:33N 29°55' W 089°56'3 3.2
2016-Jul-30 08:31N 29°52' W 089°55'3 3.0
2016-Jul-30 07:33N 29°52' W 089°59'4 2.8
2016-Jul-30 06:12N 29°48' W 090°01'0 0.0
2016-Jul-30 04:10N 29°48' W 090°01'0 0.0
2016-Jul-30 02:08N 29°48' W 090°01'1 0.4
2016-Jul-29 23:31N 29°47' W 090°01'0 0.0
2016-Jul-29 21:15N 29°47' W 090°01'0 0.0
2016-Jul-29 20:32N 29°47' W 090°01'0 0.0
2016-Jul-29 19:05N 29°47' W 090°01'3 0.7
2016-Jul-29 14:16N 29°44' W 089°60'6 6.7
2016-Jul-29 13:25N 29°50' W 089°60'4 5.2
2016-Jul-29 12:33N 29°52' W 089°55'5 5.0
2016-Jul-29 11:33N 29°56' W 089°59'1 1.3
2016-Jul-29 10:33N 29°56' W 090°00'3 3.3
2016-Jul-29 09:34N 29°56' W 090°04'4 4.0
2016-Jul-29 08:33N 29°56' W 090°08'  

Dump ship's entire track history